createdAt,value
2023-02-24T00:02:06.218Z,18.15
2023-02-24T00:04:41.598Z,25.85
2023-02-24T00:07:16.921Z,18.80
2023-02-24T00:09:49.363Z,12.63
2023-02-24T00:12:17.136Z,14.13
2023-02-24T00:14:45.394Z,15.98
2023-02-24T00:17:14.715Z,19.63
2023-02-24T00:19:42.040Z,9.32
2023-02-24T00:22:09.894Z,16.88
2023-02-24T00:24:37.076Z,17.17
2023-02-24T00:27:12.535Z,11.48
2023-02-24T00:29:42.038Z,12.52
2023-02-24T00:32:13.468Z,19.67
2023-02-24T00:34:41.406Z,16.90
2023-02-24T00:37:08.774Z,14.63
2023-02-24T00:39:42.101Z,16.70
2023-02-24T00:42:12.049Z,23.38
2023-02-24T00:44:45.846Z,22.80
2023-02-24T00:47:16.508Z,10.95
2023-02-24T00:49:43.830Z,20.95
2023-02-24T00:52:17.041Z,18.70
2023-02-24T00:54:46.013Z,16.88
2023-02-24T00:57:14.387Z,12.60
2023-02-24T00:59:47.715Z,12.05
2023-02-24T01:02:15.593Z,11.82
2023-02-24T01:04:44.747Z,16.83
2023-02-24T01:07:13.938Z,14.45
2023-02-24T01:09:42.014Z,14.25
2023-02-24T01:12:30.304Z,20.30
2023-02-24T01:14:57.520Z,15.00
2023-02-24T01:17:25.801Z,17.73
2023-02-24T01:19:53.247Z,13.07
2023-02-24T01:22:22.911Z,17.98
2023-02-24T01:24:50.425Z,14.10
2023-02-24T01:27:19.433Z,16.98
2023-02-24T01:29:48.176Z,12.15
2023-02-24T01:32:19.364Z,13.68
2023-02-24T01:34:51.175Z,12.38
2023-02-24T01:37:19.790Z,17.00
2023-02-24T01:39:48.128Z,17.13
2023-02-24T01:42:19.979Z,13.55
2023-02-24T01:44:47.683Z,15.63
2023-02-24T01:47:18.374Z,16.55
2023-02-24T01:49:48.027Z,18.02
2023-02-24T01:52:22.366Z,15.93
2023-02-24T01:55:01.071Z,7.67
2023-02-24T01:57:31.587Z,13.80
2023-02-24T02:00:11.559Z,14.15
2023-02-24T02:02:45.957Z,13.15
2023-02-24T02:05:14.436Z,12.27
2023-02-24T02:07:43.541Z,14.93
2023-02-24T02:10:12.452Z,16.80
2023-02-24T02:12:44.773Z,10.18
2023-02-24T02:15:15.489Z,22.38
2023-02-24T02:18:07.279Z,14.40
2023-02-24T02:20:59.468Z,13.68
2023-02-24T02:23:35.898Z,15.93
2023-02-24T02:26:25.190Z,17.75
2023-02-24T02:29:07.516Z,12.10
2023-02-24T02:32:05.488Z,14.50
2023-02-24T02:34:43.429Z,12.20
2023-02-24T02:37:26.850Z,14.18
2023-02-24T02:40:16.307Z,18.35
2023-02-24T02:42:50.437Z,13.98
2023-02-24T02:45:26.450Z,13.15
2023-02-24T02:48:35.006Z,15.90
2023-02-24T02:51:11.529Z,8.45
2023-02-24T02:53:45.717Z,9.95
2023-02-24T02:56:17.892Z,13.45
2023-02-24T02:58:56.167Z,12.05
2023-02-24T03:01:32.120Z,12.52
2023-02-24T03:04:04.845Z,13.57
2023-02-24T03:06:44.089Z,16.20
2023-02-24T03:09:18.516Z,12.02
2023-02-24T03:11:53.315Z,11.27
2023-02-24T03:14:25.193Z,14.57
2023-02-24T03:16:54.216Z,17.95
2023-02-24T03:19:31.118Z,15.23
2023-02-24T03:22:06.355Z,9.75
2023-02-24T03:24:36.840Z,8.82
2023-02-24T03:27:13.649Z,12.63
2023-02-24T03:30:07.386Z,15.35
2023-02-24T03:32:51.603Z,14.98
2023-02-24T03:35:31.534Z,12.95
2023-02-24T03:38:01.641Z,20.30
2023-02-24T03:40:34.170Z,12.35
2023-02-24T03:43:11.615Z,16.25
2023-02-24T03:45:41.107Z,13.48
2023-02-24T03:48:12.384Z,26.60
2023-02-24T03:50:42.285Z,16.95
2023-02-24T03:53:23.979Z,12.23
2023-02-24T03:56:33.238Z,20.33
2023-02-24T03:59:36.682Z,11.80
2023-02-24T04:02:24.795Z,17.70
2023-02-24T04:05:06.755Z,18.33
2023-02-24T04:08:04.304Z,9.45
2023-02-24T04:11:10.530Z,10.07
2023-02-24T04:13:43.631Z,11.48
2023-02-24T04:16:36.694Z,13.77
2023-02-24T04:19:14.223Z,9.32
2023-02-24T04:21:46.233Z,9.10
2023-02-24T04:24:23.887Z,11.75
2023-02-24T04:26:53.879Z,16.20
2023-02-24T04:29:23.838Z,15.43
2023-02-24T04:31:56.776Z,12.48
2023-02-24T04:34:25.021Z,11.52
2023-02-24T04:36:52.108Z,9.77
2023-02-24T04:39:23.586Z,13.77
2023-02-24T04:41:54.363Z,13.38
2023-02-24T04:44:22.542Z,15.60
2023-02-24T04:46:51.068Z,13.68
2023-02-24T04:49:19.540Z,8.70
2023-02-24T04:51:46.664Z,10.93
2023-02-24T04:54:17.656Z,17.42
2023-02-24T04:56:50.856Z,12.85
2023-02-24T04:59:19.608Z,8.90
2023-02-24T05:01:47.470Z,9.57
2023-02-24T05:04:14.928Z,11.52
2023-02-24T05:06:44.590Z,6.78
2023-02-24T05:09:18.132Z,9.90
2023-02-24T05:11:51.144Z,20.92
2023-02-24T05:14:21.163Z,8.77
2023-02-24T05:16:49.473Z,13.25
2023-02-24T05:19:37.702Z,10.90
2023-02-24T05:22:07.250Z,14.25
2023-02-24T05:24:34.914Z,8.10
2023-02-24T05:27:04.024Z,10.65
2023-02-24T05:29:34.891Z,9.07
2023-02-24T05:32:04.332Z,11.13
2023-02-24T05:34:33.504Z,9.98
2023-02-24T05:37:04.808Z,8.18
2023-02-24T05:39:32.118Z,12.63
2023-02-24T05:42:05.471Z,14.10
2023-02-24T05:44:32.915Z,11.95
2023-02-24T05:46:59.897Z,9.23
2023-02-24T05:49:33.364Z,10.75
2023-02-24T05:52:07.872Z,10.55
2023-02-24T05:54:39.694Z,11.23
2023-02-24T05:57:13.272Z,16.75
2023-02-24T05:59:41.849Z,14.57
2023-02-24T06:02:13.023Z,13.00
2023-02-24T06:04:51.711Z,13.00
2023-02-24T06:07:22.936Z,12.65
2023-02-24T06:09:53.996Z,13.57
2023-02-24T06:12:33.884Z,7.60
2023-02-24T06:15:02.455Z,7.07
2023-02-24T06:17:29.745Z,12.23
2023-02-24T06:19:59.726Z,6.07
2023-02-24T06:22:27.608Z,11.00
2023-02-24T06:24:56.994Z,13.50
2023-02-24T06:27:25.237Z,12.88
2023-02-24T06:29:55.721Z,12.73
2023-02-24T06:32:26.219Z,17.10
2023-02-24T06:34:54.733Z,9.63
2023-02-24T06:37:23.428Z,11.95
2023-02-24T06:39:50.769Z,8.18
2023-02-24T06:42:18.358Z,12.75
2023-02-24T06:44:45.488Z,12.43
2023-02-24T06:47:13.975Z,11.77
2023-02-24T06:49:43.080Z,15.15
2023-02-24T06:52:11.830Z,7.88
2023-02-24T06:54:39.423Z,12.07
2023-02-24T06:57:09.114Z,9.35
2023-02-24T06:59:36.093Z,12.65
2023-02-24T07:02:03.595Z,11.13
2023-02-24T07:04:33.410Z,11.70
2023-02-24T07:07:04.076Z,13.10
2023-02-24T07:09:32.652Z,12.15
2023-02-24T07:12:02.832Z,14.57
2023-02-24T07:14:33.197Z,12.45
2023-02-24T07:17:00.675Z,13.18
2023-02-24T07:19:30.374Z,8.15
2023-02-24T07:22:00.626Z,20.05
2023-02-24T07:24:40.737Z,15.77
2023-02-24T07:27:11.893Z,13.05
2023-02-24T07:29:39.495Z,18.33
2023-02-24T07:32:10.794Z,12.48
2023-02-24T07:34:40.545Z,14.07
2023-02-24T07:37:09.394Z,13.70
2023-02-24T07:39:38.362Z,15.48
2023-02-24T07:42:07.753Z,15.32
2023-02-24T07:44:45.045Z,20.77
2023-02-24T07:47:12.364Z,12.48
2023-02-24T07:49:41.273Z,14.52
2023-02-24T07:52:09.342Z,17.83
2023-02-24T07:54:39.684Z,17.40
2023-02-24T07:57:13.776Z,14.73
2023-02-24T07:59:48.599Z,16.77
2023-02-24T08:02:18.539Z,19.27
2023-02-24T08:04:50.513Z,10.98
2023-02-24T08:07:25.404Z,19.85
2023-02-24T08:10:14.251Z,15.80
2023-02-24T08:12:43.003Z,15.90
2023-02-24T08:15:17.494Z,13.88
2023-02-24T08:17:47.653Z,15.48
2023-02-24T08:20:15.039Z,14.85
2023-02-24T08:22:44.435Z,11.77
2023-02-24T08:25:19.174Z,10.98
2023-02-24T08:28:07.894Z,19.05
2023-02-24T08:30:40.894Z,18.70
2023-02-24T08:33:11.590Z,12.05
2023-02-24T08:35:45.288Z,10.15
2023-02-24T08:38:14.559Z,17.90
2023-02-24T08:40:52.316Z,16.58
2023-02-24T08:43:27.896Z,12.75
2023-02-24T08:46:06.287Z,16.95
2023-02-24T08:48:42.689Z,18.70
2023-02-24T08:51:23.809Z,18.33
2023-02-24T08:53:53.387Z,17.02
2023-02-24T08:56:29.555Z,15.55
2023-02-24T08:59:05.563Z,13.43
2023-02-24T09:01:36.089Z,24.83
2023-02-24T09:04:19.893Z,11.27
2023-02-24T09:07:10.681Z,16.17
2023-02-24T09:09:42.587Z,13.82
2023-02-24T09:12:21.973Z,19.05
2023-02-24T09:14:56.915Z,19.75
2023-02-24T09:17:40.963Z,14.90
2023-02-24T09:20:28.129Z,17.05
2023-02-24T09:23:07.930Z,13.85
2023-02-24T09:25:41.177Z,15.43
2023-02-24T09:28:17.711Z,18.10
2023-02-24T09:30:57.193Z,13.35
2023-02-24T09:33:42.416Z,18.20
2023-02-24T09:36:28.590Z,13.13
2023-02-24T09:39:01.691Z,23.67
2023-02-24T09:41:54.686Z,18.25
2023-02-24T09:44:33.922Z,23.02
2023-02-24T09:47:41.105Z,14.40
2023-02-24T09:50:40.672Z,20.83
2023-02-24T09:53:19.700Z,16.52
2023-02-24T09:56:10.447Z,15.40
2023-02-24T09:58:48.157Z,22.23
2023-02-24T10:01:33.854Z,17.33
2023-02-24T10:04:20.137Z,18.20
2023-02-24T10:06:50.373Z,20.67
2023-02-24T10:09:23.875Z,20.38
2023-02-24T10:12:04.060Z,21.27
2023-02-24T10:14:51.295Z,16.55
2023-02-24T10:17:25.264Z,16.70
2023-02-24T10:20:00.933Z,14.27
2023-02-24T10:23:05.334Z,17.80
2023-02-24T10:25:54.379Z,12.57
2023-02-24T10:28:52.113Z,20.08
2023-02-24T10:31:35.801Z,22.15
2023-02-24T10:34:08.671Z,17.10
2023-02-24T10:36:37.031Z,12.20
2023-02-24T10:39:08.665Z,17.08
2023-02-24T10:41:57.827Z,16.75
2023-02-24T10:44:36.815Z,20.55
2023-02-24T10:47:12.235Z,16.55
2023-02-24T10:49:59.357Z,17.70
2023-02-24T10:52:56.273Z,18.77
2023-02-24T10:55:29.187Z,18.75
2023-02-24T10:58:16.214Z,12.77
2023-02-24T11:01:12.599Z,28.40
2023-02-24T11:03:48.252Z,19.98
2023-02-24T11:06:31.168Z,20.02
2023-02-24T11:09:19.364Z,17.30
2023-02-24T11:12:06.654Z,22.60
2023-02-24T11:15:16.415Z,20.45
2023-02-24T11:17:54.777Z,28.00
2023-02-24T11:20:47.741Z,26.58
2023-02-24T11:23:38.441Z,18.23
2023-02-24T11:26:27.940Z,20.98
2023-02-24T11:29:15.629Z,22.50
2023-02-24T11:31:52.168Z,23.65
2023-02-24T11:34:29.413Z,23.23
2023-02-24T11:37:08.459Z,22.75
2023-02-24T11:39:50.523Z,24.67
2023-02-24T11:42:31.386Z,24.33
2023-02-24T11:45:22.892Z,26.10
2023-02-24T11:48:03.247Z,23.70
2023-02-24T11:50:53.946Z,21.55
2023-02-24T11:53:24.003Z,25.60
2023-02-24T11:56:44.426Z,25.45
2023-02-24T11:59:19.261Z,25.80
2023-02-24T12:01:55.680Z,29.17
2023-02-24T12:04:40.399Z,21.63
2023-02-24T12:07:14.084Z,24.38
2023-02-24T12:10:10.670Z,27.27
2023-02-24T12:12:54.960Z,30.17
2023-02-24T12:15:36.081Z,31.55
2023-02-24T12:18:26.545Z,28.90
2023-02-24T12:21:11.642Z,31.67
2023-02-24T12:23:48.383Z,32.73
2023-02-24T12:26:30.483Z,30.08
2023-02-24T12:29:19.002Z,30.23
2023-02-24T12:32:16.077Z,32.90
2023-02-24T12:34:49.444Z,26.75
2023-02-24T12:37:47.338Z,31.05
2023-02-24T12:40:40.333Z,31.70
2023-02-24T12:43:29.926Z,27.58
2023-02-24T12:46:20.053Z,34.20
2023-02-24T12:49:00.734Z,35.45
2023-02-24T12:51:42.456Z,27.90
2023-02-24T12:54:20.449Z,30.98
2023-02-24T12:56:53.400Z,26.00
2023-02-24T12:59:25.336Z,26.65
2023-02-24T13:02:01.465Z,22.67
2023-02-24T13:04:41.332Z,21.55
2023-02-24T13:07:29.149Z,25.02
2023-02-24T13:10:08.332Z,21.25
2023-02-24T13:13:14.133Z,23.70
2023-02-24T13:16:00.947Z,29.90
2023-02-24T13:18:34.003Z,23.85
2023-02-24T13:21:06.309Z,27.33
2023-02-24T13:23:33.867Z,33.08
2023-02-24T13:26:01.261Z,32.75
2023-02-24T13:28:31.491Z,26.80
2023-02-24T13:31:05.878Z,26.35
2023-02-24T13:33:35.359Z,22.08
2023-02-24T13:36:10.991Z,20.45
2023-02-24T13:38:41.944Z,23.33
2023-02-24T13:41:36.530Z,23.23
2023-02-24T13:44:21.379Z,23.85
2023-02-24T13:47:13.205Z,21.38
2023-02-24T13:50:06.045Z,19.27
2023-02-24T13:52:52.075Z,23.92
2023-02-24T13:55:56.963Z,21.73
2023-02-24T13:58:46.894Z,21.40
2023-02-24T14:01:18.364Z,21.83
2023-02-24T14:04:01.788Z,18.88
2023-02-24T14:06:29.382Z,23.65
2023-02-24T14:09:00.978Z,19.13
2023-02-24T14:11:31.554Z,25.45
2023-02-24T14:13:59.594Z,22.48
2023-02-24T14:16:35.971Z,24.15
2023-02-24T14:19:04.042Z,17.80
2023-02-24T14:21:33.817Z,25.95
2023-02-24T14:24:11.237Z,21.02
2023-02-24T14:26:49.908Z,21.70
2023-02-24T14:29:32.397Z,35.90
2023-02-24T14:32:00.212Z,22.88
2023-02-24T14:34:31.994Z,22.55
2023-02-24T14:37:02.601Z,25.30
2023-02-24T14:39:31.869Z,20.98
2023-02-24T14:42:08.765Z,32.08
2023-02-24T14:44:45.878Z,29.33
2023-02-24T14:47:15.031Z,23.40
2023-02-24T14:49:51.644Z,27.70
2023-02-24T14:52:30.865Z,23.73
2023-02-24T14:55:16.705Z,23.33
2023-02-24T15:00:24.412Z,25.38
2023-02-24T15:03:11.070Z,22.60
2023-02-24T15:05:47.902Z,18.92
2023-02-24T15:08:30.177Z,23.02
2023-02-24T15:10:58.684Z,29.70
2023-02-24T15:13:35.722Z,22.63
2023-02-24T15:16:12.871Z,35.45
2023-02-24T15:18:41.542Z,23.70
2023-02-24T15:21:23.923Z,25.02
2023-02-24T15:24:03.368Z,24.45
2023-02-24T15:26:35.326Z,24.25
2023-02-24T15:29:21.423Z,25.40
2023-02-24T15:31:50.145Z,26.95
2023-02-24T15:34:32.517Z,25.33
2023-02-24T15:37:04.523Z,33.55
2023-02-24T15:39:34.404Z,28.65
2023-02-24T15:42:16.925Z,17.30
2023-02-24T15:45:23.399Z,30.95
2023-02-24T15:47:56.253Z,39.03
2023-02-24T15:50:24.165Z,35.60
2023-02-24T15:52:51.121Z,27.48
2023-02-24T15:55:22.110Z,27.52
2023-02-24T15:58:00.926Z,27.30
2023-02-24T16:00:28.904Z,22.92
2023-02-24T16:02:56.017Z,27.02
2023-02-24T16:05:23.394Z,20.25
2023-02-24T16:07:50.820Z,25.63
2023-02-24T16:10:30.209Z,26.33
2023-02-24T16:13:00.491Z,27.60
2023-02-24T16:15:38.283Z,23.95
2023-02-24T16:18:14.451Z,24.67
2023-02-24T16:20:42.295Z,22.23
2023-02-24T16:23:10.844Z,27.50
2023-02-24T16:25:42.518Z,26.70
2023-02-24T16:28:20.199Z,29.73
2023-02-24T16:30:49.817Z,25.65
2023-02-24T16:33:18.077Z,26.50
2023-02-24T16:35:46.527Z,25.00
2023-02-24T16:38:15.625Z,21.77
2023-02-24T16:40:48.515Z,19.30
2023-02-24T16:43:16.330Z,24.65
2023-02-24T16:45:45.173Z,21.25
2023-02-24T16:48:25.125Z,14.32
2023-02-24T16:50:52.507Z,23.83
2023-02-24T16:53:22.788Z,20.90
2023-02-24T16:55:50.308Z,24.48
2023-02-24T16:58:17.886Z,21.23
2023-02-24T17:00:47.910Z,25.20
2023-02-24T17:03:27.654Z,27.00
2023-02-24T17:05:55.630Z,28.15
2023-02-24T17:08:23.354Z,20.75
2023-02-24T17:10:51.590Z,21.75
2023-02-24T17:13:21.049Z,19.88
2023-02-24T17:15:50.043Z,21.48
2023-02-24T17:18:17.259Z,20.70
2023-02-24T17:20:45.277Z,20.40
2023-02-24T17:23:12.244Z,21.30
2023-02-24T17:25:39.510Z,22.63
2023-02-24T17:28:06.822Z,23.20
2023-02-24T17:30:35.623Z,23.88
2023-02-24T17:33:03.038Z,20.88
2023-02-24T17:35:30.420Z,27.58
2023-02-24T17:37:57.473Z,12.07
2023-02-24T17:40:25.776Z,9.80
2023-02-24T17:42:52.989Z,11.77
2023-02-24T17:45:20.316Z,16.17
2023-02-24T17:47:47.485Z,18.00
2023-02-24T17:50:14.795Z,16.42
2023-02-24T17:52:42.060Z,16.63
2023-02-24T17:55:10.327Z,16.60
2023-02-24T17:57:40.018Z,17.17
2023-02-24T18:00:08.764Z,18.52
2023-02-24T18:02:42.263Z,20.83
2023-02-24T18:05:11.632Z,23.10
2023-02-24T18:07:39.143Z,20.40
2023-02-24T18:10:07.201Z,26.08
2023-02-24T18:12:34.213Z,17.88
2023-02-24T18:15:08.739Z,17.58
2023-02-24T18:17:37.686Z,22.05
2023-02-24T18:20:06.435Z,16.67
2023-02-24T18:22:33.821Z,17.98
2023-02-24T18:25:01.229Z,20.73
2023-02-24T18:27:28.376Z,18.35
2023-02-24T18:29:55.462Z,23.38
2023-02-24T18:32:23.227Z,26.38
2023-02-24T18:34:50.507Z,16.27
2023-02-24T18:37:17.790Z,14.15
2023-02-24T18:39:44.946Z,14.63
2023-02-24T18:42:11.949Z,22.52
2023-02-24T18:44:40.312Z,21.85
2023-02-24T18:47:09.902Z,21.30
2023-02-24T18:49:37.814Z,18.05
2023-02-24T18:52:07.349Z,10.73
2023-02-24T18:54:35.097Z,15.88
2023-02-24T18:57:02.168Z,10.15
2023-02-24T18:59:29.281Z,13.07
2023-02-24T19:01:57.377Z,16.13
2023-02-24T19:04:25.194Z,13.90
2023-02-24T19:06:52.834Z,14.88
2023-02-24T19:09:24.060Z,16.75
2023-02-24T19:11:52.549Z,18.33
2023-02-24T19:14:20.031Z,14.80
2023-02-24T19:16:47.053Z,13.75
2023-02-24T19:19:14.875Z,17.23
2023-02-24T19:21:45.495Z,14.63
2023-02-24T19:24:14.050Z,20.45
2023-02-24T19:26:42.841Z,22.70
2023-02-24T19:29:11.021Z,11.57
2023-02-24T19:31:39.120Z,19.75
2023-02-24T19:34:10.161Z,15.32
2023-02-24T19:36:37.829Z,19.30
2023-02-24T19:39:06.054Z,20.95
2023-02-24T19:41:33.228Z,19.23
2023-02-24T19:44:00.224Z,18.08
2023-02-24T19:46:27.637Z,23.67
2023-02-24T19:48:57.115Z,19.65
2023-02-24T19:51:24.507Z,21.23
2023-02-24T19:53:57.336Z,17.58
2023-02-24T19:56:30.159Z,15.02
2023-02-24T19:58:58.972Z,11.68
2023-02-24T20:01:28.059Z,26.35
2023-02-24T20:04:01.780Z,21.00
2023-02-24T20:06:40.018Z,16.40
2023-02-24T20:09:10.056Z,26.13
2023-02-24T20:11:40.633Z,11.60
2023-02-24T20:14:08.430Z,9.52
2023-02-24T20:16:37.677Z,20.23
2023-02-24T20:19:06.119Z,15.48
2023-02-24T20:21:34.260Z,20.20
2023-02-24T20:24:07.025Z,22.75
2023-02-24T20:26:35.341Z,29.25
2023-02-24T20:29:02.539Z,24.90
2023-02-24T20:31:30.016Z,28.63
2023-02-24T20:33:57.016Z,25.95
2023-02-24T20:36:26.694Z,40.63
2023-02-24T20:38:54.858Z,28.38
2023-02-24T20:41:22.607Z,35.15
2023-02-24T20:43:49.975Z,23.02
2023-02-24T20:46:24.298Z,27.95
2023-02-24T20:48:56.792Z,27.95
2023-02-24T20:51:26.991Z,30.40
2023-02-24T20:53:58.139Z,24.70
2023-02-24T20:56:28.484Z,21.38
2023-02-24T20:59:20.663Z,30.88
2023-02-24T21:01:49.369Z,23.60
2023-02-24T21:04:19.063Z,25.90
2023-02-24T21:06:48.186Z,23.00
2023-02-24T21:09:16.119Z,34.40
2023-02-24T21:11:43.233Z,20.52
2023-02-24T21:14:15.954Z,34.88
2023-02-24T21:16:43.290Z,25.85
2023-02-24T21:19:10.272Z,27.15
2023-02-24T21:21:37.380Z,31.77
2023-02-24T21:24:05.179Z,21.83
2023-02-24T21:26:32.456Z,20.75
2023-02-24T21:28:59.787Z,29.30
2023-02-24T21:31:27.637Z,24.73
2023-02-24T21:33:55.373Z,38.13
2023-02-24T21:36:26.437Z,32.67
2023-02-24T21:38:54.476Z,31.23
2023-02-24T21:41:23.976Z,40.92
2023-02-24T21:43:55.820Z,29.15
2023-02-24T21:46:28.748Z,35.00
2023-02-24T21:48:59.459Z,23.13
2023-02-24T21:51:27.846Z,32.50
2023-02-24T21:53:55.353Z,30.27
2023-02-24T21:56:27.087Z,23.23
2023-02-24T21:58:59.082Z,23.17
2023-02-24T22:01:32.259Z,19.30
2023-02-24T22:04:02.519Z,15.60
2023-02-24T22:06:32.117Z,20.35
2023-02-24T22:09:00.530Z,22.17
2023-02-24T22:11:27.962Z,24.88
2023-02-24T22:13:55.271Z,27.70
2023-02-24T22:16:24.762Z,20.80
2023-02-24T22:18:53.505Z,19.55
2023-02-24T22:21:23.740Z,25.20
2023-02-24T22:23:53.546Z,20.50
2023-02-24T22:26:25.843Z,27.13
2023-02-24T22:28:56.788Z,22.70
2023-02-24T22:31:27.428Z,19.02
2023-02-24T22:33:54.438Z,24.60
2023-02-24T22:36:25.348Z,30.25
2023-02-24T22:38:53.425Z,24.63
2023-02-24T22:41:23.367Z,21.80
2023-02-24T22:43:51.903Z,22.15
2023-02-24T22:46:23.634Z,19.35
2023-02-24T22:48:50.901Z,23.15
2023-02-24T22:51:19.183Z,22.80
2023-02-24T22:53:49.064Z,26.25
2023-02-24T22:56:18.653Z,16.30
2023-02-24T22:58:45.572Z,23.52
2023-02-24T23:01:26.291Z,23.90
2023-02-24T23:03:53.938Z,20.73
2023-02-24T23:06:27.508Z,18.20
2023-02-24T23:08:55.238Z,19.25
2023-02-24T23:11:31.035Z,17.27
2023-02-24T23:14:00.209Z,11.82
2023-02-24T23:16:30.044Z,20.80
2023-02-24T23:18:59.212Z,26.45
2023-02-24T23:21:32.013Z,26.92
2023-02-24T23:24:00.317Z,19.45
2023-02-24T23:26:36.373Z,25.80
2023-02-24T23:29:04.519Z,20.83
2023-02-24T23:31:32.090Z,20.63
2023-02-24T23:33:59.366Z,23.23
2023-02-24T23:36:26.630Z,23.77
2023-02-24T23:38:53.716Z,14.38
2023-02-24T23:41:20.950Z,18.85
2023-02-24T23:43:48.258Z,16.58
2023-02-24T23:46:15.246Z,24.92
2023-02-24T23:48:42.274Z,21.70
2023-02-24T23:51:13.718Z,18.17
2023-02-24T23:53:43.134Z,23.50
2023-02-24T23:56:22.446Z,21.48
2023-02-24T23:58:54.855Z,20.88
